Time;durP1;ratioP1;P1;durP2;ratioP2;P2;SDS_P1;SDS_P2;PMS_P1;PMS_P2;Temp;Humidity;BMP_temperature;BMP_pressure;BME280_temperature;BME280_humidity;BME280_pressure;Samples;Min_cycle;Max_cycle;Signal;HPM_P1;HPM_P2
2022/11/07 00:01:11;;;;;;;25.13;8.93;;;7.60;99.90;;;;;;5038064;28;20250;-87
2022/11/07 00:03:37;;;;;;;20.73;9.37;;;;;;;;;;5037438;28;20172;-86
2022/11/07 00:06:04;;;;;;;16.17;7.93;;;;;;;;;;5037865;28;20179;-88
2022/11/07 00:08:33;;;;;;;23.37;8.77;;;;;;;;;;5055663;28;20180;-87
2022/11/07 00:11:00;;;;;;;17.73;7.17;;;7.70;99.90;;;;;;5021939;28;20184;-88
2022/11/07 00:13:26;;;;;;;21.73;9.27;;;;;;;;;;5021421;28;20203;-87
2022/11/07 00:16:03;;;;;;;25.17;10.97;;;7.70;99.90;;;;;;5037030;28;20317;-87
2022/11/07 00:18:29;;;;;;;19.97;8.07;;;;;;;;;;5037443;28;20172;-87
2022/11/07 00:20:55;;;;;;;24.47;8.50;;;;;;;;;;5037165;28;20188;-87
2022/11/07 00:23:21;;;;;;;22.17;8.67;;;;;;;;;;5036996;28;20187;-88
2022/11/07 00:25:47;;;;;;;27.30;10.90;;;7.80;99.90;;;;;;5037502;28;20184;-87
2022/11/07 00:28:13;;;;;;;16.83;8.50;;;;;;;;;;5037086;28;20186;-87
2022/11/07 00:30:40;;;;;;;18.43;8.00;;;;;;;;;;5036904;28;20184;-87
2022/11/07 00:33:06;;;;;;;19.87;8.17;;;;;;;;;;5037369;28;20281;-87
2022/11/07 00:35:32;;;;;;;22.70;10.63;;;;;;;;;;5037037;28;20183;-86
2022/11/07 00:37:58;;;;;;;20.33;8.03;;;;;;;;;;5036668;28;20180;-87
2022/11/07 00:40:24;;;;;;;24.63;8.33;;;7.90;99.90;;;;;;5037059;28;20226;-87
2022/11/07 00:42:50;;;;;;;20.77;8.73;;;;;;;;;;5054715;28;20234;-87
2022/11/07 00:45:16;;;;;;;18.03;8.57;;;;;;;;;;5036857;28;20274;-87
2022/11/07 00:47:42;;;;;;;19.90;8.43;;;8.00;99.90;;;;;;5054250;28;20191;-87
2022/11/07 00:50:08;;;;;;;16.53;7.03;;;8.50;99.90;;;;;;5020323;28;20187;-87
2022/11/07 00:52:34;;;;;;;18.50;8.10;;;;;;;;;;5020147;28;20349;-86
2022/11/07 00:55:00;;;;;;;12.53;6.10;;;;;;;;;;5054178;28;20172;-87
2022/11/07 00:57:26;;;;;;;17.20;7.43;;;;;;;;;;5036649;28;20183;-86
2022/11/07 00:59:52;;;;;;;20.83;6.13;;;;;;;;;;5036203;28;20180;-87
2022/11/07 01:02:18;;;;;;;15.20;7.40;;;;;;;;;;5036422;28;20183;-86
2022/11/07 01:07:29;;;;;;;15.13;5.77;;;;;;;;;;5054374;28;20195;-86
2022/11/07 01:09:55;;;;;;;16.37;6.83;;;;;;;;;;5036011;28;20652;-87
2022/11/07 01:12:21;;;;;;;17.30;6.17;;;;;;;;;;5019767;28;20216;-86
2022/11/07 01:14:47;;;;;;;16.60;8.03;;;;;;;;;;5035940;28;20187;-87
2022/11/07 01:17:13;;;;;;;14.53;6.67;;;;;;;;;;5036127;28;20282;-87
2022/11/07 01:19:39;;;;;;;18.10;7.50;;;;;;;;;;5019746;28;20184;-87
2022/11/07 01:22:05;;;;;;;13.57;7.37;;;;;;;;;;5036260;28;20218;-87
2022/11/07 01:24:31;;;;;;;17.10;8.00;;;8.30;99.90;;;;;;5036590;28;20602;-87
2022/11/07 01:26:56;;;;;;;13.33;7.47;;;8.30;99.90;;;;;;5036099;28;20211;-87
2022/11/07 01:29:22;;;;;;;10.57;6.23;;;;;;;;;;5035933;28;20278;-86
2022/11/07 01:31:48;;;;;;;15.37;7.40;;;;;;;;;;5019406;28;20238;-87
2022/11/07 01:34:16;;;;;;;13.73;6.70;;;;;;;;;;5054067;28;20184;-87
2022/11/07 01:36:42;;;;;;;14.53;7.20;;;;;;;;;;5019692;28;20187;-87
2022/11/07 01:39:08;;;;;;;16.60;7.33;;;;;;;;;;5035607;28;20623;-86
2022/11/07 01:41:36;;;;;;;17.30;8.57;;;8.30;99.90;;;;;;5054325;28;20191;-87
2022/11/07 01:44:08;;;;;;;17.77;8.23;;;8.30;99.90;;;;;;5035718;28;20190;-87
2022/11/07 01:46:42;;;;;;;19.00;7.60;;;8.40;99.90;;;;;;5035675;28;20184;-87
2022/11/07 01:49:14;;;;;;;24.20;10.13;;;8.70;99.90;;;;;;5034974;28;20187;-87
2022/11/07 01:51:48;;;;;;;21.03;7.37;;;9.20;99.90;;;;;;5035479;28;20675;-86
2022/11/07 01:54:17;;;;;;;15.60;6.93;;;8.30;99.90;;;;;;5035893;28;20271;-87
2022/11/07 01:56:44;;;;;;;18.50;8.33;;;8.30;99.90;;;;;;5035277;28;20276;-87
2022/11/07 01:59:13;;;;;;;16.27;8.20;;;8.40;99.90;;;;;;5035024;28;20180;-87
2022/11/07 02:01:39;;;;;;;16.67;7.03;;;;;;;;;;5035629;28;20187;-87
2022/11/07 02:04:06;;;;;;;18.33;7.30;;;;;;;;;;5034487;28;20205;-87
2022/11/07 02:06:47;;;;;;;19.27;7.60;;;9.30;99.90;;;;;;5035927;28;20183;-87
2022/11/07 02:09:13;;;;;;;17.80;7.07;;;;;;;;;;5052881;28;20267;-87
2022/11/07 02:11:39;;;;;;;31.00;10.85;;;8.40;99.90;;;;;;5034180;28;20529;-87
2022/11/07 02:14:05;;;;;;;21.13;8.23;;;;;;;;;;5018588;28;20633;-87
2022/11/07 02:16:31;;;;;;;21.70;8.57;;;;;;;;;;5035541;28;20183;-87
2022/11/07 02:18:58;;;;;;;17.70;7.07;;;8.40;99.90;;;;;;5018503;28;20266;-87
2022/11/07 02:21:24;;;;;;;11.53;6.03;;;;;;;;;;5053016;28;20632;-87
2022/11/07 02:24:24;;;;;;;13.17;7.47;;;8.40;99.90;;;;;;5034994;28;20670;-88
2022/11/07 02:26:51;;;;;;;17.23;7.10;;;8.40;99.90;;;;;;5020127;28;20199;-88
2022/11/07 02:29:17;;;;;;;19.27;7.77;;;8.40;99.90;;;;;;5035431;28;20341;-87
2022/11/07 02:31:43;;;;;;;17.63;7.40;;;;;;;;;;5034844;28;20204;-87
2022/11/07 02:34:09;;;;;;;11.77;6.63;;;8.40;99.90;;;;;;5034745;28;20180;-87
2022/11/07 02:36:35;;;;;;;14.40;6.33;;;;;;;;;;5018703;28;20596;-87
2022/11/07 02:39:01;;;;;;;19.47;6.60;;;;;;;;;;5034766;28;20210;-87
2022/11/07 02:41:32;;;;;;;13.27;7.53;;;8.40;99.90;;;;;;5052458;28;20645;-87
2022/11/07 02:44:07;;;;;;;15.40;9.10;;;8.30;99.90;;;;;;5052861;28;20172;-87
2022/11/07 02:46:33;;;;;;;11.97;4.90;;;;;;;;;;5035196;28;20190;-87
2022/11/07 02:49:00;;;;;;;12.83;6.90;;;8.40;99.90;;;;;;5036604;28;20179;-88
2022/11/07 02:51:26;;;;;;;17.03;6.50;;;;;;;;;;5018631;28;20215;-88
2022/11/07 02:53:52;;;;;;;12.53;6.80;;;;;;;;;;5052694;28;20657;-87
2022/11/07 02:56:19;;;;;;;18.93;6.87;;;8.40;99.90;;;;;;5034288;28;20249;-86
2022/11/07 02:58:45;;;;;;;11.77;5.53;;;;;;;;;;5002155;28;20188;-85
2022/11/07 03:01:11;;;;;;;14.50;6.27;;;;;;;;;;5034445;28;20257;-85
2022/11/07 03:03:40;;;;;;;11.37;5.47;;;8.40;99.90;;;;;;5034742;28;20181;-86
2022/11/07 03:06:08;;;;;;;9.27;5.57;;;8.40;99.90;;;;;;5034576;28;20186;-88
2022/11/07 03:08:34;;;;;;;13.83;6.17;;;;;;;;;;5034949;28;20271;-86
2022/11/07 03:11:00;;;;;;;11.23;5.23;;;;;;;;;;5034026;28;20184;-85
2022/11/07 03:13:26;;;;;;;13.50;5.87;;;;;;;;;;5018454;28;20203;-85
2022/11/07 03:15:52;;;;;;;13.47;6.53;;;8.40;99.90;;;;;;5020365;28;20629;-86
2022/11/07 03:18:18;;;;;;;11.67;6.73;;;;;;;;;;5055705;28;20180;-87
2022/11/07 03:20:44;;;;;;;13.83;7.00;;;;;;;;;;5038292;28;20187;-86
2022/11/07 03:23:11;;;;;;;9.60;5.57;;;;;;;;;;5038078;28;20190;-86
2022/11/07 03:25:37;;;;;;;12.03;5.40;;;;;;;;;;5038327;28;20176;-86
2022/11/07 03:28:03;;;;;;;12.90;6.23;;;8.40;99.90;;;;;;5038026;28;20180;-86
2022/11/07 03:30:29;;;;;;;14.37;5.93;;;;;;;;;;5056215;28;20196;-86
2022/11/07 03:32:55;;;;;;;12.20;5.83;;;8.50;99.90;;;;;;5038335;28;20215;-85
2022/11/07 03:35:21;;;;;;;12.03;6.27;;;;;;;;;;5021853;28;20188;-86
2022/11/07 03:37:48;;;;;;;32.23;8.10;;;8.40;99.90;;;;;;5055815;28;20171;-85
2022/11/07 03:40:14;;;;;;;15.40;6.60;;;;;;;;;;5055615;28;20175;-85
2022/11/07 03:42:41;;;;;;;13.47;6.93;;;;;;;;;;5038108;28;20205;-85
2022/11/07 03:45:08;;;;;;;27.63;10.37;;;8.50;99.90;;;;;;5037059;28;20769;-85
2022/11/07 03:47:38;;;;;;;23.87;7.53;;;8.50;99.90;;;;;;5021703;28;20577;-86
2022/11/07 03:50:05;;;;;;;17.93;7.40;;;8.50;99.90;;;;;;5021288;28;20696;-86
2022/11/07 03:52:31;;;;;;;15.23;6.73;;;;;;;;;;5037944;28;20664;-86
2022/11/07 03:54:57;;;;;;;14.27;5.87;;;;;;;;;;5055636;28;20179;-86
2022/11/07 03:57:23;;;;;;;14.97;6.80;;;;;;;;;;5021711;28;20295;-86
2022/11/07 03:59:49;;;;;;;15.47;6.93;;;8.50;99.90;;;;;;5037978;28;20180;-86
2022/11/07 04:02:15;;;;;;;13.13;6.30;;;;;;;;;;5037843;28;20647;-87
2022/11/07 04:04:40;;;;;;;14.30;5.03;;;8.50;99.90;;;;;;5037938;28;20192;-86
2022/11/07 04:07:06;;;;;;;15.93;6.73;;;;;;;;;;5021116;28;20731;-86
2022/11/07 04:09:33;;;;;;;21.43;7.53;;;;;;;;;;5038158;28;20261;-85
2022/11/07 04:17:28;;;;;;;12.37;6.80;;;8.60;99.90;;;;;;5048992;28;20176;-86
2022/11/07 04:19:54;;;;;;;13.50;7.30;;;8.60;99.90;;;;;;5052602;28;20172;-87
2022/11/07 04:22:21;;;;;;;21.03;7.37;;;8.60;99.90;;;;;;5079230;28;20167;-87
2022/11/07 04:24:47;;;;;;;22.70;9.07;;;8.30;99.90;;;;;;5062548;28;20227;-85
2022/11/07 04:30:17;;;;;;;20.30;8.00;;;;;;;;;;5077811;28;20182;-86
2022/11/07 04:32:44;;;;;;;13.43;6.53;;;;;;;;;;5067820;28;20211;-86
2022/11/07 04:35:10;;;;;;;18.83;7.90;;;;;;;;;;5049327;28;20180;-89
2022/11/07 04:37:36;;;;;;;14.63;8.07;;;;;;;;;;5025547;28;20223;-88
2022/11/07 04:40:02;;;;;;;20.67;8.10;;;8.60;99.90;;;;;;5025716;28;20243;-87
2022/11/07 04:42:28;;;;;;;18.77;7.33;;;;;;;;;;5057231;28;20177;-88
2022/11/07 04:44:54;;;;;;;13.37;6.63;;;;;;;;;;5002790;28;20200;-88
2022/11/07 04:47:20;;;;;;;17.13;6.30;;;;;;;;;;5002236;28;20185;-90
2022/11/07 04:49:45;;;;;;;16.23;8.10;;;8.60;99.90;;;;;;5017959;28;20235;-87
2022/11/07 04:52:12;;;;;;;14.77;6.80;;;8.60;99.90;;;;;;5002067;28;20204;-87
2022/11/07 04:54:38;;;;;;;13.70;7.07;;;;;;;;;;5025095;28;20188;-87
2022/11/07 04:57:04;;;;;;;9.57;5.57;;;;;;;;;;5056201;28;20259;-88
2022/11/07 04:59:29;;;;;;;20.37;6.90;;;8.60;99.90;;;;;;5037350;28;20198;-87
2022/11/07 05:01:55;;;;;;;11.90;6.33;;;;;;;;;;5038183;28;20589;-87
2022/11/07 05:04:21;;;;;;;14.33;6.50;;;8.60;99.90;;;;;;5009561;28;20189;-87
2022/11/07 05:06:47;;;;;;;11.10;5.37;;;;;;;;;;5022668;28;20588;-87
2022/11/07 05:09:16;;;;;;;15.17;6.13;;;8.60;99.90;;;;;;5035906;28;20156;-87
2022/11/07 05:11:43;;;;;;;13.93;6.03;;;;;;;;;;5017556;28;20212;-86
2022/11/07 05:14:08;;;;;;;14.10;6.73;;;8.60;99.90;;;;;;5034793;28;20184;-86
2022/11/07 05:16:34;;;;;;;13.10;7.07;;;;;;;;;;4989099;28;20184;-88
2022/11/07 05:19:00;;;;;;;19.20;6.03;;;8.60;99.90;;;;;;5011257;28;20215;-85
2022/11/07 05:21:26;;;;;;;17.90;7.50;;;9.60;99.90;;;;;;5034360;28;20265;-85
2022/11/07 05:23:52;;;;;;;17.67;7.03;;;;;;;;;;4984934;28;20637;-87
2022/11/07 05:26:18;;;;;;;11.23;5.50;;;8.60;99.90;;;;;;5001203;28;20535;-87
2022/11/07 05:28:43;;;;;;;13.50;5.83;;;8.60;99.90;;;;;;4998628;28;20192;-85
2022/11/07 05:31:14;;;;;;;23.80;9.37;;;8.60;99.90;;;;;;5047047;28;20260;-84
2022/11/07 05:33:40;;;;;;;14.20;6.40;;;;;;;;;;5058634;28;20198;-85
2022/11/07 05:36:18;;;;;;;16.70;6.93;;;8.60;99.90;;;;;;5064146;28;20348;-86
2022/11/07 05:38:46;;;;;;;15.83;7.20;;;8.70;99.90;;;;;;5063787;28;20180;-88
2022/11/07 05:41:13;;;;;;;17.47;6.77;;;8.70;99.90;;;;;;5039433;28;20206;-88
2022/11/07 05:43:39;;;;;;;20.73;7.30;;;;;;;;;;5027847;28;20633;-87
2022/11/07 05:46:06;;;;;;;23.53;8.60;;;8.70;99.90;;;;;;5016900;28;20188;-89
2022/11/07 05:48:32;;;;;;;23.40;8.13;;;8.70;99.90;;;;;;5015901;28;20297;-87
2022/11/07 05:50:58;;;;;;;14.90;6.93;;;8.70;99.90;;;;;;5019003;28;20200;-86
2022/11/07 05:53:24;;;;;;;12.63;6.13;;;8.70;99.90;;;;;;5034906;28;20190;-86
2022/11/07 05:55:51;;;;;;;16.20;6.73;;;;;;;;;;4998968;28;20231;-86
2022/11/07 05:58:17;;;;;;;18.80;7.70;;;;;;;;;;5017657;28;20227;-86
2022/11/07 06:00:43;;;;;;;17.63;8.33;;;;;;;;;;4998654;28;20180;-85
2022/11/07 06:03:09;;;;;;;18.83;9.27;;;8.70;99.90;;;;;;4999662;28;20196;-85
2022/11/07 06:05:37;;;;;;;22.67;8.40;;;8.70;99.90;;;;;;5016174;28;20191;-87
2022/11/07 06:08:04;;;;;;;21.90;8.47;;;8.90;99.90;;;;;;5033279;28;20173;-86
2022/11/07 06:10:30;;;;;;;12.20;5.63;;;;;;;;;;4999311;28;20237;-85
2022/11/07 06:13:04;;;;;;;16.83;7.33;;;8.80;99.90;;;;;;4999282;28;20255;-85
2022/11/07 06:15:32;;;;;;;14.17;7.33;;;8.80;99.90;;;;;;5015251;28;20179;-85
2022/11/07 06:18:04;;;;;;;19.77;8.20;;;8.80;99.90;;;;;;5015833;28;20237;-86
2022/11/07 06:20:30;;;;;;;17.37;8.33;;;;;;;;;;5033710;28;20179;-86
2022/11/07 06:22:58;;;;;;;20.47;8.67;;;8.80;99.90;;;;;;5034177;28;20228;-86
2022/11/07 06:25:24;;;;;;;25.20;9.97;;;;;;;;;;4998886;28;20184;-86
2022/11/07 06:27:50;;;;;;;22.57;7.80;;;8.80;99.90;;;;;;5015183;28;20208;-86
2022/11/07 06:30:16;;;;;;;19.27;8.27;;;;;;;;;;4999061;28;20254;-85
2022/11/07 06:32:45;;;;;;;16.63;7.97;;;8.90;99.90;;;;;;5015245;28;20216;-86
2022/11/07 06:35:11;;;;;;;16.17;7.10;;;8.90;99.90;;;;;;4999966;28;20215;-86
2022/11/07 06:37:38;;;;;;;18.27;8.53;;;8.90;99.90;;;;;;5015357;28;20184;-85
2022/11/07 06:40:04;;;;;;;14.53;8.33;;;9.00;99.90;;;;;;4982926;28;20184;-86
2022/11/07 06:42:31;;;;;;;15.67;7.80;;;8.90;99.90;;;;;;5033127;28;20275;-85
2022/11/07 06:44:56;;;;;;;19.67;7.67;;;8.90;99.90;;;;;;4983134;28;20189;-86
2022/11/07 06:47:22;;;;;;;21.90;9.07;;;;;;;;;;5015173;28;20184;-85
2022/11/07 06:49:48;;;;;;;20.30;8.93;;;9.00;99.90;;;;;;4998988;28;20634;-86
2022/11/07 06:52:15;;;;;;;21.63;10.10;;;9.10;99.90;;;;;;5019351;28;20258;-85
2022/11/07 06:54:41;;;;;;;15.37;7.87;;;9.10;99.90;;;;;;5019014;28;20187;-86
2022/11/07 06:57:08;;;;;;;16.93;6.20;;;9.10;99.90;;;;;;5019035;28;20329;-86
2022/11/07 06:59:34;;;;;;;18.23;6.93;;;;;;;;;;5002237;28;20185;-85
2022/11/07 07:02:00;;;;;;;17.10;6.27;;;9.00;99.90;;;;;;5019851;28;20272;-85
2022/11/07 07:04:26;;;;;;;16.03;6.63;;;;;;;;;;5055987;28;20267;-87
2022/11/07 07:06:51;;;;;;;17.07;7.33;;;9.20;99.90;;;;;;5038271;28;20249;-86
2022/11/07 07:09:17;;;;;;;12.30;7.03;;;;;;;;;;5021574;28;20640;-87
2022/11/07 07:11:44;;;;;;;19.17;7.73;;;9.20;99.90;;;;;;5021085;28;20292;-86
2022/11/07 07:14:10;;;;;;;19.50;6.87;;;9.20;99.90;;;;;;5021596;28;20184;-85
2022/11/07 07:16:36;;;;;;;9.10;6.10;;;9.20;99.90;;;;;;5019742;28;20183;-86
2022/11/07 07:19:02;;;;;;;12.60;6.60;;;9.30;99.90;;;;;;5020914;28;20191;-86
2022/11/07 07:21:29;;;;;;;18.20;7.80;;;;;;;;;;5032082;28;20521;-88
2022/11/07 07:23:55;;;;;;;23.53;8.07;;;9.30;99.90;;;;;;5027118;28;20275;-86
2022/11/07 07:26:21;;;;;;;7.83;5.27;;;;;;;;;;5027415;28;20184;-86
2022/11/07 07:28:47;;;;;;;20.20;6.23;;;9.40;99.90;;;;;;5025633;28;20184;-86
2022/11/07 07:31:13;;;;;;;17.97;7.80;;;9.40;99.90;;;;;;5018191;28;20184;-86
2022/11/07 07:33:46;;;;;;;13.73;6.40;;;9.40;99.90;;;;;;5022036;28;20191;-86
2022/11/07 07:36:12;;;;;;;15.83;7.30;;;9.50;99.90;;;;;;5017828;28;20200;-86
2022/11/07 07:38:38;;;;;;;12.20;5.97;;;9.40;99.90;;;;;;5001242;28;20271;-86
2022/11/07 07:41:05;;;;;;;18.90;7.00;;;;;;;;;;5017599;28;20276;-86
2022/11/07 07:43:31;;;;;;;16.13;6.63;;;9.50;99.90;;;;;;5017560;28;20212;-86
2022/11/07 07:46:02;;;;;;;14.30;7.93;;;9.50;99.90;;;;;;5017644;28;20176;-87
2022/11/07 07:48:28;;;;;;;16.90;6.80;;;6.30;99.90;;;;;;5020123;28;20242;-87
2022/11/07 07:50:54;;;;;;;15.20;7.30;;;9.50;99.90;;;;;;5027617;28;20580;-87
2022/11/07 07:53:20;;;;;;;21.07;8.27;;;;;;;;;;5009990;28;20776;-87
2022/11/07 07:55:46;;;;;;;16.43;7.23;;;;;;;;;;5041003;28;20231;-88
2022/11/07 07:58:13;;;;;;;18.60;8.37;;;;;;;;;;5031079;28;20270;-88
2022/11/07 08:00:39;;;;;;;15.03;7.07;;;9.60;99.90;;;;;;5020536;28;20212;-86
2022/11/07 08:03:10;;;;;;;17.30;7.57;;;9.60;99.90;;;;;;5020164;28;20190;-86
2022/11/07 08:05:37;;;;;;;17.83;8.97;;;9.60;99.90;;;;;;5014384;28;20185;-87
2022/11/07 08:08:04;;;;;;;19.90;7.80;;;9.70;99.90;;;;;;4996853;28;20219;-88
2022/11/07 08:10:30;;;;;;;23.27;8.30;;;9.70;99.90;;;;;;5022792;28;20180;-86
2022/11/07 08:12:56;;;;;;;16.10;6.97;;;9.70;99.90;;;;;;5025957;28;20220;-88
2022/11/07 08:15:22;;;;;;;12.30;6.70;;;9.60;99.90;;;;;;5009687;28;20188;-88
2022/11/07 08:17:48;;;;;;;18.10;7.57;;;;;;;;;;5011209;28;20184;-88
2022/11/07 08:20:16;;;;;;;12.33;6.53;;;9.80;99.90;;;;;;5040821;28;20172;-88
2022/11/07 08:22:42;;;;;;;17.57;7.17;;;9.80;99.90;;;;;;5009419;28;20633;-86
2022/11/07 08:25:09;;;;;;;16.33;7.23;;;9.90;99.90;;;;;;5025029;28;20234;-87
2022/11/07 08:27:35;;;;;;;15.70;6.90;;;10.20;99.90;;;;;;5043163;28;20212;-87
2022/11/07 08:30:06;;;;;;;15.50;6.90;;;9.90;99.90;;;;;;5027751;28;20183;-88
2022/11/07 08:32:32;;;;;;;16.77;8.47;;;10.20;99.90;;;;;;5024670;28;20199;-88
2022/11/07 08:34:57;;;;;;;14.33;6.20;;;9.90;99.90;;;;;;5024248;28;20230;-88
2022/11/07 08:37:23;;;;;;;18.13;7.97;;;10.00;99.90;;;;;;5026589;28;20632;-87
2022/11/07 08:39:49;;;;;;;9.60;6.00;;;10.10;99.90;;;;;;5026139;28;20182;-87
2022/11/07 08:42:15;;;;;;;12.97;7.90;;;10.10;99.90;;;;;;5027179;28;20279;-87
2022/11/07 08:44:41;;;;;;;10.97;5.47;;;;;;;;;;5025673;28;20180;-89
2022/11/07 08:47:07;;;;;;;19.80;7.43;;;10.20;99.90;;;;;;5028312;28;20176;-88
2022/11/07 08:49:33;;;;;;;22.73;6.37;;;;;;;;;;5045142;28;20236;-87
2022/11/07 08:52:00;;;;;;;18.42;8.63;;;10.20;99.90;;;;;;5023120;28;20680;-87
2022/11/07 08:54:27;;;;;;;17.83;6.77;;;10.10;99.90;;;;;;5008777;28;20238;-87
2022/11/07 08:56:58;;;;;;;14.87;6.37;;;10.10;99.90;;;;;;5022116;28;20318;-88
2022/11/07 08:59:23;;;;;;;13.27;7.37;;;10.10;99.90;;;;;;5009031;28;20230;-88
2022/11/07 09:01:50;;;;;;;14.40;6.80;;;;;;;;;;5008337;28;20663;-87
2022/11/07 09:04:15;;;;;;;14.93;7.53;;;10.10;99.90;;;;;;5011208;28;20185;-87
2022/11/07 09:06:41;;;;;;;11.63;5.32;;;;;;;;;;5011107;28;20668;-87
2022/11/07 09:09:09;;;;;;;12.80;6.20;;;10.20;99.90;;;;;;5008069;28;20184;-87
2022/11/07 09:11:34;;;;;;;16.90;6.17;;;10.10;99.90;;;;;;5009592;28;20203;-88
2022/11/07 09:14:01;;;;;;;13.67;6.97;;;;;;;;;;5025451;28;20679;-87
2022/11/07 09:16:27;;;;;;;17.80;5.80;;;10.20;99.90;;;;;;5007409;28;20607;-87
2022/11/07 09:18:53;;;;;;;16.10;8.47;;;;;;;;;;5008452;28;20275;-87
2022/11/07 09:21:19;;;;;;;21.70;6.73;;;10.40;99.90;;;;;;5007547;28;20322;-87
2022/11/07 09:23:45;;;;;;;13.90;6.70;;;10.30;99.90;;;;;;5026556;28;20648;-89
2022/11/07 09:26:13;;;;;;;13.50;7.40;;;10.30;99.90;;;;;;5019385;28;20180;-87
2022/11/07 09:28:39;;;;;;;13.97;6.70;;;;;;;;;;5024792;28;20207;-87
2022/11/07 09:31:05;;;;;;;14.40;7.23;;;;;;;;;;5010488;28;20268;-88
2022/11/07 09:33:31;;;;;;;13.30;7.07;;;;;;;;;;5028730;28;20183;-87
2022/11/07 09:36:03;;;;;;;14.10;5.10;;;10.40;99.90;;;;;;5026441;28;20179;-87
2022/11/07 09:38:29;;;;;;;15.35;6.03;;;;;;;;;;5011716;28;20204;-88
2022/11/07 09:40:55;;;;;;;10.00;5.07;;;;;;;;;;5024195;28;20659;-87
2022/11/07 09:43:21;;;;;;;13.05;5.53;;;;;;;;;;5024324;28;20191;-88
2022/11/07 09:46:25;;;;;;;11.73;6.35;;;10.50;99.90;;;;;;5020926;28;20184;-88
2022/11/07 09:49:00;;;;;;;11.57;5.23;;;10.50;99.90;;;;;;5029529;28;20172;-89
2022/11/07 09:51:39;;;;;;;11.23;5.23;;;10.40;99.90;;;;;;5023948;28;20203;-88
2022/11/07 09:54:16;;;;;;;14.77;7.60;;;10.30;99.90;;;;;;5046823;28;20258;-88
2022/11/07 09:56:43;;;;;;;14.35;5.78;;;10.50;99.90;;;;;;5026760;28;20226;-88
2022/11/07 09:59:21;;;;;;;14.50;6.57;;;10.60;99.90;;;;;;5026610;28;20175;-87
2022/11/07 10:01:47;;;;;;;13.73;6.63;;;;;;;;;;5006665;28;20204;-86
2022/11/07 10:04:19;;;;;;;14.20;6.30;;;10.70;99.90;;;;;;5035112;28;20187;-87
2022/11/07 10:06:50;;;;;;;6.63;4.65;;;10.30;99.90;;;;;;5013907;28;20192;-87
2022/11/07 10:09:23;;;;;;;12.53;5.67;;;10.50;99.90;;;;;;5021174;28;20180;-86
2022/11/07 10:12:45;;;;;;;11.33;5.07;;;10.50;99.90;;;;;;5040316;28;20200;-87
2022/11/07 10:15:32;;;;;;;13.50;6.37;;;10.50;99.90;;;;;;4962781;29;20288;-87
2022/11/07 10:18:13;;;;;;;10.03;5.23;;;10.50;99.90;;;;;;4943771;29;20183;-86
2022/11/07 10:21:02;;;;;;;9.50;5.37;;;10.40;99.90;;;;;;5043514;28;20186;-88
2022/11/07 10:23:43;;;;;;;10.33;5.97;;;10.40;99.90;;;;;;5077260;28;20147;-88
2022/11/07 10:26:11;;;;;;;15.38;7.05;;;10.40;99.90;;;;;;5059067;28;20156;-88
2022/11/07 10:28:43;;;;;;;10.23;5.80;;;10.40;99.90;;;;;;5056476;28;20282;-86
2022/11/07 10:31:13;;;;;;;10.32;5.97;;;10.40;99.90;;;;;;5042155;28;20176;-87
2022/11/07 10:33:50;;;;;;;14.57;6.68;;;10.40;99.90;;;;;;5047096;28;20172;-87
2022/11/07 10:36:25;;;;;;;13.97;6.13;;;10.40;99.90;;;;;;5055938;28;20163;-86
2022/11/07 10:38:51;;;;;;;13.00;6.60;;;10.40;99.90;;;;;;5059686;28;20213;-87
2022/11/07 10:41:20;;;;;;;9.23;5.22;;;10.40;99.90;;;;;;5070892;28;20183;-86
2022/11/07 10:43:52;;;;;;;10.13;5.87;;;10.40;99.90;;;;;;5034605;28;20275;-85
2022/11/07 10:46:35;;;;;;;10.40;5.40;;;10.50;99.90;;;;;;5019349;28;20184;-86
2022/11/07 10:49:02;;;;;;;15.73;5.32;;;10.50;99.90;;;;;;5035075;28;20187;-86
2022/11/07 10:51:36;;;;;;;11.03;6.03;;;10.60;99.90;;;;;;5034955;28;20199;-86
2022/11/07 10:54:01;;;;;;;12.37;6.17;;;10.60;99.90;;;;;;5034773;28;20629;-86
2022/11/07 10:56:27;;;;;;;18.52;7.25;;;10.60;99.90;;;;;;5052519;28;20270;-87
2022/11/07 10:58:53;;;;;;;11.43;5.70;;;;;;;;;;5035122;28;20274;-86
2022/11/07 11:01:26;;;;;;;12.93;6.18;;;10.50;99.90;;;;;;5034887;28;20187;-86
2022/11/07 11:03:52;;;;;;;10.65;5.95;;;10.80;99.90;;;;;;5035374;28;20176;-85
2022/11/07 11:06:26;;;;;;;12.05;5.95;;;10.80;99.90;;;;;;5035165;28;20651;-86
2022/11/07 11:08:52;;;;;;;15.52;7.47;;;10.70;99.90;;;;;;5053418;28;20195;-85
2022/11/07 11:11:21;;;;;;;11.43;6.32;;;10.70;99.90;;;;;;5034709;28;20679;-86
2022/11/07 11:13:47;;;;;;;12.98;5.13;;;10.80;99.90;;;;;;5035112;28;20291;-86
2022/11/07 11:16:14;;;;;;;8.50;5.45;;;10.80;99.90;;;;;;5052506;28;20200;-86
2022/11/07 11:18:54;;;;;;;12.50;6.45;;;10.80;99.90;;;;;;5034889;28;20187;-85
2022/11/07 11:21:20;;;;;;;18.02;6.63;;;10.80;99.90;;;;;;5018906;28;20263;-86
2022/11/07 11:23:47;;;;;;;12.65;5.55;;;10.60;99.90;;;;;;5052678;28;20176;-86
2022/11/07 11:26:35;;;;;;;13.35;7.55;;;10.90;99.90;;;;;;5035141;28;20176;-88
2022/11/07 11:29:08;;;;;;;10.25;5.38;;;10.90;99.90;;;;;;4991403;28;20191;-84
2022/11/07 11:31:42;;;;;;;12.52;4.97;;;10.80;99.90;;;;;;4974985;28;20288;-86
2022/11/07 11:34:30;;;;;;;14.02;5.75;;;10.80;99.90;;;;;;4974797;28;20186;-84
2022/11/07 11:37:21;;;;;;;9.90;5.65;;;10.90;99.90;;;;;;4976293;28;20178;-85
2022/11/07 11:40:05;;;;;;;9.97;5.43;;;10.90;99.90;;;;;;4977695;28;20189;-86
2022/11/07 11:42:57;;;;;;;9.02;5.47;;;10.90;99.90;;;;;;4994617;28;20174;-85
2022/11/07 11:45:38;;;;;;;8.55;4.80;;;10.90;99.90;;;;;;4978036;28;20198;-85
2022/11/07 11:48:33;;;;;;;9.00;4.82;;;10.90;99.90;;;;;;4977713;28;20181;-87
2022/11/07 11:51:21;;;;;;;11.18;5.40;;;10.90;99.90;;;;;;4978509;28;20268;-87
2022/11/07 11:53:47;;;;;;;10.68;5.13;;;10.90;99.90;;;;;;4994601;28;20284;-85
2022/11/07 11:56:13;;;;;;;8.52;4.18;;;;;;;;;;4993828;28;20678;-85
2022/11/07 11:59:03;;;;;;;12.52;4.97;;;10.90;99.90;;;;;;4994837;28;20178;-83
2022/11/07 12:02:04;;;;;;;12.45;5.65;;;11.00;99.90;;;;;;5038046;28;20180;-85
2022/11/07 12:04:59;;;;;;;10.15;5.10;;;11.00;99.90;;;;;;5045028;28;20233;-85
2022/11/07 12:07:36;;;;;;;8.40;4.43;;;11.00;99.90;;;;;;5037941;28;20234;-86
2022/11/07 12:10:13;;;;;;;11.80;5.63;;;11.00;99.90;;;;;;5038392;28;20230;-85
2022/11/07 12:12:38;;;;;;;14.13;5.97;;;11.10;99.90;;;;;;5038258;28;20294;-86
2022/11/07 12:15:04;;;;;;;11.25;5.50;;;11.10;99.90;;;;;;5038947;28;20619;-85
2022/11/07 12:18:00;;;;;;;10.75;4.82;;;11.20;99.90;;;;;;5038566;28;20270;-86
2022/11/07 12:20:37;;;;;;;13.57;5.63;;;11.30;99.90;;;;;;5037877;28;20190;-86
2022/11/07 12:23:26;;;;;;;9.95;5.05;;;11.30;99.90;;;;;;5055660;28;20685;-85
2022/11/07 12:26:18;;;;;;;25.33;6.78;;;11.30;99.90;;;;;;5056441;28;20186;-85
2022/11/07 12:28:44;;;;;;;11.65;5.13;;;11.30;99.90;;;;;;5037899;28;20186;-86
2022/11/07 12:31:38;;;;;;;11.20;4.70;;;11.30;99.90;;;;;;5038064;28;20184;-86
2022/11/07 12:34:04;;;;;;;8.82;5.00;;;11.40;99.90;;;;;;5011225;28;20203;-85
2022/11/07 12:36:42;;;;;;;9.57;5.45;;;11.40;99.90;;;;;;5055447;28;20176;-85
2022/11/07 12:39:22;;;;;;;8.45;4.35;;;11.40;99.90;;;;;;5073209;28;20168;-84
2022/11/07 12:42:18;;;;;;;7.78;4.18;;;11.40;99.90;;;;;;5045487;28;20176;-85
2022/11/07 12:44:59;;;;;;;12.40;5.20;;;11.50;99.90;;;;;;5055713;28;20172;-85
2022/11/07 12:47:34;;;;;;;9.15;5.50;;;11.50;99.90;;;;;;5055066;28;20263;-85
2022/11/07 12:50:05;;;;;;;10.98;4.68;;;11.50;99.90;;;;;;5040713;28;20171;-85
2022/11/07 12:52:36;;;;;;;8.23;4.13;;;11.50;99.90;;;;;;5037199;28;20679;-85
2022/11/07 12:55:28;;;;;;;10.40;4.28;;;11.50;99.90;;;;;;5037082;28;20183;-85
2022/11/07 12:57:54;;;;;;;6.68;4.28;;;11.50;99.90;;;;;;5037363;28;20210;-85
2022/11/07 13:00:26;;;;;;;9.73;5.03;;;11.50;99.90;;;;;;5020387;28;20211;-85
2022/11/07 13:02:57;;;;;;;7.50;4.68;;;11.50;99.90;;;;;;5036951;28;20191;-85
2022/11/07 13:05:41;;;;;;;8.23;4.63;;;11.50;99.90;;;;;;5036592;28;20176;-85
2022/11/07 13:08:15;;;;;;;7.32;4.28;;;11.50;99.90;;;;;;5054682;28;20170;-86
2022/11/07 13:11:02;;;;;;;9.65;4.93;;;11.50;99.90;;;;;;5036976;28;20617;-85
2022/11/07 13:14:00;;;;;;;12.38;5.53;;;11.50;99.90;;;;;;5054167;28;20206;-85
2022/11/07 13:16:32;;;;;;;8.82;5.13;;;11.60;99.90;;;;;;5053784;28;20176;-84
2022/11/07 13:19:36;;;;;;;8.77;4.60;;;11.50;99.90;;;;;;5054521;28;20525;-84
2022/11/07 13:22:05;;;;;;;9.77;5.30;;;11.50;99.90;;;;;;5037654;28;20198;-85
2022/11/07 13:24:35;;;;;;;6.00;4.25;;;11.50;99.90;;;;;;5056014;28;20239;-84
2022/11/07 13:27:01;;;;;;;8.95;3.97;;;11.50;99.90;;;;;;5037646;28;20211;-85
2022/11/07 13:29:36;;;;;;;6.10;3.50;;;11.50;99.90;;;;;;5019567;28;20215;-86
2022/11/07 13:32:09;;;;;;;9.93;4.57;;;11.40;99.90;;;;;;5036324;28;20207;-86
2022/11/07 13:34:56;;;;;;;10.05;4.63;;;11.50;99.90;;;;;;5035687;28;20248;-85
2022/11/07 13:37:35;;;;;;;16.45;6.38;;;11.40;99.90;;;;;;5035886;28;20175;-85
2022/11/07 13:40:12;;;;;;;10.43;5.30;;;11.40;99.90;;;;;;5054141;28;20206;-86
2022/11/07 13:42:41;;;;;;;10.07;5.43;;;11.40;99.90;;;;;;5035858;28;20192;-86